createdAt,value
2022-08-12T00:19:57.706Z,7
2022-08-12T00:48:49.617Z,6
2022-08-12T01:17:42.242Z,7
2022-08-12T01:46:30.856Z,7
2022-08-12T02:15:21.301Z,7
2022-08-12T02:44:12.764Z,7
2022-08-12T03:13:03.903Z,7
2022-08-12T03:41:53.281Z,7
2022-08-12T04:10:42.964Z,9
2022-08-12T04:39:32.406Z,9
2022-08-12T05:08:13.170Z,10
2022-08-12T05:36:58.842Z,11
2022-08-12T06:05:29.431Z,12
2022-08-12T06:35:22.791Z,12
2022-08-12T07:03:16.697Z,11
2022-08-12T07:31:31.117Z,11
2022-08-12T08:00:07.851Z,12
2022-08-12T08:28:48.454Z,10
2022-08-12T08:57:43.260Z,10
2022-08-12T09:25:55.536Z,10
2022-08-12T09:54:35.578Z,10
2022-08-12T10:22:58.095Z,12
2022-08-12T10:51:52.350Z,9
2022-08-12T11:20:03.099Z,9
2022-08-12T11:48:51.594Z,10
2022-08-12T12:17:09.118Z,13
2022-08-12T12:45:26.460Z,11
2022-08-12T13:14:06.597Z,12
2022-08-12T13:42:25.945Z,10
2022-08-12T14:11:08.458Z,12
2022-08-12T14:39:32.453Z,11
2022-08-12T15:08:05.122Z,10
2022-08-12T15:36:54.554Z,10
2022-08-12T16:04:55.870Z,10
2022-08-12T16:33:35.505Z,9
2022-08-12T17:01:55.158Z,9
2022-08-12T17:30:26.059Z,8
2022-08-12T17:58:59.091Z,8
2022-08-12T18:27:43.975Z,7
2022-08-12T18:55:59.768Z,7
2022-08-12T19:24:30.821Z,7
2022-08-12T19:53:09.571Z,7
2022-08-12T20:21:55.140Z,6
2022-08-12T20:50:27.463Z,6
2022-08-12T21:18:50.952Z,7
2022-08-12T21:47:22.552Z,7
2022-08-12T22:15:51.003Z,7
2022-08-12T22:44:14.209Z,6
2022-08-12T23:13:05.591Z,6
2022-08-12T23:41:55.816Z,7
